createdAt,value
2017-08-15T00:00:22.149Z,16.20
2017-08-15T00:02:49.786Z,16.20
2017-08-15T00:05:17.441Z,16.10
2017-08-15T00:07:45.029Z,16.00
2017-08-15T00:10:12.623Z,16.10
2017-08-15T00:12:40.293Z,16.00
2017-08-15T00:15:08.639Z,16.30
2017-08-15T00:17:36.255Z,16.30
2017-08-15T00:20:03.904Z,16.50
2017-08-15T00:22:31.604Z,16.60
2017-08-15T00:24:59.243Z,16.70
2017-08-15T00:27:26.815Z,16.50
2017-08-15T00:29:54.479Z,16.40
2017-08-15T00:32:22.170Z,16.30
2017-08-15T00:34:49.771Z,16.20
2017-08-15T00:37:17.579Z,16.20
2017-08-15T00:39:45.190Z,16.30
2017-08-15T00:42:13.541Z,16.40
2017-08-15T00:44:51.134Z,16.40
2017-08-15T00:47:18.741Z,16.30
2017-08-15T00:49:46.379Z,16.10
2017-08-15T00:52:15.086Z,16.00
2017-08-15T00:54:42.671Z,16.00
2017-08-15T00:57:10.385Z,16.00
2017-08-15T00:59:37.982Z,16.00
2017-08-15T01:02:05.569Z,15.90
2017-08-15T01:04:33.185Z,15.90
2017-08-15T01:07:00.906Z,15.90
2017-08-15T01:09:28.502Z,15.90
2017-08-15T01:11:56.082Z,15.90
2017-08-15T01:14:23.780Z,15.80
2017-08-15T01:16:51.360Z,15.80
2017-08-15T01:19:19.709Z,15.80
2017-08-15T01:21:47.413Z,15.70
2017-08-15T01:24:15.061Z,15.90
2017-08-15T01:26:42.680Z,15.80
2017-08-15T01:29:10.293Z,15.80
2017-08-15T01:31:37.896Z,15.70
2017-08-15T01:34:05.473Z,15.70
2017-08-15T01:36:33.086Z,15.60
2017-08-15T01:39:00.685Z,15.60
2017-08-15T01:41:29.059Z,15.40
2017-08-15T01:43:56.673Z,15.50
2017-08-15T01:46:24.328Z,15.50
2017-08-15T01:48:51.929Z,15.40
2017-08-15T01:51:19.557Z,15.40
2017-08-15T01:53:47.246Z,15.40
2017-08-15T01:56:14.841Z,15.40
2017-08-15T01:58:42.439Z,15.30
2017-08-15T02:01:10.053Z,15.30
2017-08-15T02:03:37.668Z,15.30
2017-08-15T02:06:05.283Z,15.40
2017-08-15T02:08:32.909Z,15.40
2017-08-15T02:11:00.613Z,15.30
2017-08-15T02:13:29.138Z,15.30
2017-08-15T02:15:56.713Z,15.30
2017-08-15T02:18:24.293Z,15.30
2017-08-15T02:20:52.033Z,15.20
2017-08-15T02:23:19.607Z,15.10
2017-08-15T02:25:47.215Z,14.90
2017-08-15T02:28:14.857Z,14.90
2017-08-15T02:30:43.277Z,14.80
2017-08-15T02:33:10.858Z,14.80
2017-08-15T02:35:38.470Z,14.80
2017-08-15T02:38:06.122Z,14.70
2017-08-15T02:40:33.714Z,14.70
2017-08-15T02:43:01.326Z,14.70
2017-08-15T02:45:29.274Z,14.60
2017-08-15T02:47:56.856Z,14.60
2017-08-15T02:50:25.219Z,14.60
2017-08-15T02:52:52.784Z,14.60
2017-08-15T02:55:20.382Z,14.60
2017-08-15T02:57:56.527Z,14.60
2017-08-15T03:00:24.114Z,14.60
2017-08-15T03:02:51.723Z,14.50
2017-08-15T03:05:19.356Z,14.50
2017-08-15T03:07:46.931Z,14.50
2017-08-15T03:10:14.648Z,14.50
2017-08-15T03:12:42.415Z,14.40
2017-08-15T03:15:09.987Z,14.50
2017-08-15T03:17:37.578Z,14.50
2017-08-15T03:20:05.256Z,14.50
2017-08-15T03:22:32.840Z,14.60
2017-08-15T03:25:00.426Z,14.60
2017-08-15T03:27:28.129Z,14.50
2017-08-15T03:30:13.900Z,14.50
2017-08-15T03:32:41.631Z,14.50
2017-08-15T03:35:09.221Z,14.60
2017-08-15T03:37:36.822Z,14.80
2017-08-15T03:40:04.460Z,14.80
2017-08-15T03:42:32.109Z,14.80
2017-08-15T03:45:00.466Z,14.80
2017-08-15T03:47:28.232Z,14.80
2017-08-15T03:49:55.848Z,15.00
2017-08-15T03:52:23.450Z,15.10
2017-08-15T03:54:51.055Z,15.10
2017-08-15T03:57:18.682Z,15.10
2017-08-15T03:59:46.242Z,15.00
2017-08-15T04:02:13.837Z,14.90
2017-08-15T04:04:49.154Z,14.80
2017-08-15T04:07:22.553Z,14.70
2017-08-15T04:09:50.196Z,14.60
2017-08-15T04:12:17.865Z,14.50
2017-08-15T04:14:45.505Z,14.60
2017-08-15T04:17:13.121Z,14.60
2017-08-15T04:19:40.847Z,14.70
2017-08-15T04:22:10.122Z,14.90
2017-08-15T04:24:37.718Z,14.90
2017-08-15T04:27:06.074Z,14.80
2017-08-15T04:29:33.792Z,14.80
2017-08-15T04:32:01.369Z,14.70
2017-08-15T04:34:29.032Z,14.70
2017-08-15T04:36:56.800Z,14.80
2017-08-15T04:39:24.450Z,14.80
2017-08-15T04:41:52.045Z,14.90
2017-08-15T04:44:19.682Z,15.00
2017-08-15T04:46:47.332Z,14.90
2017-08-15T04:49:14.937Z,14.90
2017-08-15T04:51:43.734Z,14.90
2017-08-15T04:54:11.393Z,15.00
2017-08-15T04:56:38.975Z,15.10
2017-08-15T04:59:06.593Z,15.20
2017-08-15T05:01:34.935Z,15.30
2017-08-15T05:04:02.547Z,15.30
2017-08-15T05:06:30.988Z,15.80
2017-08-15T05:08:58.580Z,15.80
2017-08-15T05:11:26.911Z,16.40
2017-08-15T05:13:54.616Z,16.40
2017-08-15T05:16:23.196Z,16.80
2017-08-15T05:18:51.634Z,16.90
2017-08-15T05:21:19.237Z,16.90
2017-08-15T05:23:46.864Z,17.00
2017-08-15T05:26:14.449Z,17.20
2017-08-15T05:28:42.833Z,17.20
2017-08-15T05:31:11.193Z,17.10
2017-08-15T05:33:38.909Z,17.10
2017-08-15T05:36:10.489Z,17.00
2017-08-15T05:38:38.150Z,17.10
2017-08-15T05:41:05.732Z,17.10
2017-08-15T05:43:33.348Z,17.10
2017-08-15T05:46:00.995Z,17.20
2017-08-15T05:48:28.574Z,17.30
2017-08-15T05:50:56.191Z,17.30
2017-08-15T05:53:23.871Z,17.20
2017-08-15T05:55:51.789Z,17.30
2017-08-15T06:01:36.798Z,17.80
2017-08-15T06:04:06.622Z,18.20
2017-08-15T06:06:34.213Z,18.30
2017-08-15T06:09:01.828Z,18.60
2017-08-15T06:11:30.181Z,19.30
2017-08-15T06:14:02.081Z,19.30
2017-08-15T06:16:29.776Z,20.20
2017-08-15T06:18:57.383Z,20.30
2017-08-15T06:21:38.169Z,21.00
2017-08-15T06:24:06.099Z,21.00
2017-08-15T06:26:33.700Z,20.90
2017-08-15T06:29:01.289Z,21.10
2017-08-15T06:34:37.223Z,21.40
2017-08-15T06:37:05.767Z,22.10
2017-08-15T06:39:33.323Z,22.10
2017-08-15T06:42:14.879Z,22.80
2017-08-15T06:44:49.911Z,22.90
2017-08-15T06:49:59.809Z,22.80
2017-08-15T06:52:27.683Z,22.50
2017-08-15T06:54:55.256Z,22.70
2017-08-15T06:57:23.599Z,22.30
2017-08-15T06:59:53.989Z,22.30
2017-08-15T07:02:32.814Z,21.70
2017-08-15T07:05:00.477Z,22.00
2017-08-15T07:07:28.099Z,21.70
2017-08-15T07:09:56.449Z,22.20
2017-08-15T07:12:24.062Z,22.20
2017-08-15T07:14:51.701Z,22.20
2017-08-15T07:17:20.052Z,21.50
2017-08-15T07:19:47.644Z,21.50
2017-08-15T07:22:15.227Z,21.10
2017-08-15T07:24:42.821Z,21.20
2017-08-15T07:27:10.431Z,21.20
2017-08-15T07:29:38.008Z,21.20
2017-08-15T07:34:21.926Z,21.60
2017-08-15T07:36:49.582Z,21.50
2017-08-15T07:39:17.164Z,21.60
2017-08-15T07:41:44.842Z,21.70
2017-08-15T07:44:12.454Z,21.70
2017-08-15T07:46:40.054Z,21.80
2017-08-15T07:49:07.666Z,21.90
2017-08-15T07:51:35.513Z,22.00
2017-08-15T07:54:03.985Z,21.60
2017-08-15T07:56:32.447Z,21.40
2017-08-15T07:59:00.052Z,21.40
2017-08-15T08:01:27.786Z,21.00
2017-08-15T08:03:55.458Z,20.80
2017-08-15T08:06:23.042Z,20.90
2017-08-15T08:08:50.753Z,21.00
2017-08-15T08:11:18.544Z,21.00
2017-08-15T08:13:46.176Z,21.00
2017-08-15T08:16:13.776Z,21.10
2017-08-15T08:18:41.463Z,21.10
2017-08-15T08:21:09.042Z,21.20
2017-08-15T08:23:36.638Z,21.10
2017-08-15T08:26:05.260Z,21.10
2017-08-15T08:28:33.142Z,21.00
2017-08-15T08:31:00.788Z,21.00
2017-08-15T08:33:28.413Z,20.80
2017-08-15T08:35:56.717Z,20.80
2017-08-15T08:38:25.157Z,20.60
2017-08-15T08:40:52.863Z,20.60
2017-08-15T08:43:20.461Z,20.50
2017-08-15T08:45:48.278Z,20.30
2017-08-15T08:48:15.916Z,20.30
2017-08-15T08:50:43.549Z,20.20
2017-08-15T08:53:11.441Z,20.10
2017-08-15T08:55:39.642Z,20.20
2017-08-15T08:58:07.927Z,20.10
2017-08-15T09:00:36.091Z,20.10
2017-08-15T09:03:04.358Z,20.10
2017-08-15T09:05:32.119Z,20.10
2017-08-15T09:08:01.747Z,20.10
2017-08-15T09:10:29.504Z,20.10
2017-08-15T09:12:57.906Z,20.00
2017-08-15T09:15:25.652Z,20.00
2017-08-15T09:17:53.485Z,19.90
2017-08-15T09:20:23.112Z,19.80
2017-08-15T09:22:51.778Z,19.60
2017-08-15T09:25:20.576Z,19.50
2017-08-15T09:27:48.148Z,19.50
2017-08-15T09:30:15.774Z,19.50
2017-08-15T09:32:43.518Z,19.40
2017-08-15T09:35:11.166Z,19.50
2017-08-15T09:37:38.771Z,19.60
2017-08-15T09:40:06.467Z,19.70
2017-08-15T09:42:34.121Z,19.80
2017-08-15T09:45:01.758Z,19.80
2017-08-15T09:47:29.454Z,19.70
2017-08-15T09:49:57.918Z,19.90
2017-08-15T09:52:25.612Z,19.90
2017-08-15T09:54:53.258Z,20.20
2017-08-15T09:57:20.901Z,20.40
2017-08-15T09:59:48.508Z,20.60
2017-08-15T10:02:16.139Z,20.60
2017-08-15T10:04:44.597Z,20.90
2017-08-15T10:07:12.233Z,20.80
2017-08-15T10:09:39.862Z,21.00
2017-08-15T10:12:07.526Z,20.80
2017-08-15T10:14:35.346Z,20.80
2017-08-15T10:17:02.958Z,21.20
2017-08-15T10:19:30.553Z,21.50
2017-08-15T10:21:58.213Z,21.70
2017-08-15T10:24:25.922Z,21.90
2017-08-15T10:26:54.349Z,22.30
2017-08-15T10:29:21.959Z,22.30
2017-08-15T10:31:50.395Z,22.60
2017-08-15T10:34:17.972Z,22.60
2017-08-15T10:36:45.601Z,23.50
2017-08-15T10:39:13.454Z,23.50
2017-08-15T10:41:41.175Z,23.80
2017-08-15T10:44:08.781Z,22.80
2017-08-15T10:46:36.544Z,23.20
2017-08-15T10:49:04.341Z,23.60
2017-08-15T10:51:32.735Z,24.50
2017-08-15T10:54:00.379Z,24.50
2017-08-15T10:56:28.119Z,25.20
2017-08-15T10:58:55.807Z,28.10
2017-08-15T11:01:23.642Z,29.00
2017-08-15T11:03:51.242Z,27.50
2017-08-15T11:06:19.065Z,27.50
2017-08-15T11:08:46.710Z,28.70
2017-08-15T11:11:15.048Z,29.50
2017-08-15T11:13:42.890Z,29.40
2017-08-15T11:16:10.529Z,28.50
2017-08-15T11:18:38.252Z,28.80
2017-08-15T11:21:06.107Z,27.60
2017-08-15T11:23:33.853Z,27.70
2017-08-15T11:26:01.771Z,27.40
2017-08-15T11:28:29.347Z,26.40
2017-08-15T11:30:57.808Z,26.50
2017-08-15T11:39:47.981Z,26.60
2017-08-15T11:42:15.592Z,26.70
2017-08-15T11:44:45.468Z,27.10
2017-08-15T11:47:21.037Z,27.90
2017-08-15T11:49:49.491Z,27.60
2017-08-15T11:52:17.106Z,27.60
2017-08-15T11:54:44.711Z,27.30
2017-08-15T11:57:12.394Z,27.40
2017-08-15T11:59:39.982Z,26.80
2017-08-15T12:02:07.622Z,26.80
2017-08-15T12:04:35.222Z,27.70
2017-08-15T12:07:02.882Z,27.60
2017-08-15T12:09:30.548Z,27.20
2017-08-15T12:11:58.142Z,26.80
2017-08-15T12:14:25.727Z,26.90
2017-08-15T12:16:53.440Z,27.20
2017-08-15T12:19:21.804Z,26.90
2017-08-15T12:21:49.597Z,26.90
2017-08-15T12:24:18.190Z,27.50
2017-08-15T12:26:45.844Z,27.50
2017-08-15T12:29:13.433Z,27.60
2017-08-15T12:31:41.162Z,27.50
2017-08-15T12:34:09.686Z,27.70
2017-08-15T12:36:37.391Z,27.70
2017-08-15T12:39:05.786Z,28.10
2017-08-15T12:41:34.129Z,27.50
2017-08-15T12:44:01.775Z,27.50
2017-08-15T12:46:29.412Z,27.00
2017-08-15T12:48:57.008Z,26.80
2017-08-15T12:51:24.652Z,26.50
2017-08-15T12:53:52.359Z,26.40
2017-08-15T12:56:20.710Z,26.10
2017-08-15T12:58:48.322Z,26.10
2017-08-15T13:01:16.022Z,25.90
2017-08-15T13:03:43.638Z,25.60
2017-08-15T13:06:12.048Z,25.60
2017-08-15T13:08:39.670Z,25.60
2017-08-15T13:11:08.078Z,25.80
2017-08-15T13:13:35.700Z,25.80
2017-08-15T13:16:03.326Z,25.90
2017-08-15T13:18:31.039Z,26.60
2017-08-15T13:20:58.677Z,26.80
2017-08-15T13:23:26.300Z,27.00
2017-08-15T13:25:55.048Z,26.70
2017-08-15T13:28:23.513Z,25.40
2017-08-15T13:30:51.184Z,25.50
2017-08-15T13:33:19.549Z,25.30
2017-08-15T13:35:47.151Z,25.30
2017-08-15T13:38:14.909Z,25.30
2017-08-15T13:40:42.522Z,25.00
2017-08-15T13:43:10.100Z,25.10
2017-08-15T13:45:37.792Z,25.00
2017-08-15T13:48:05.595Z,25.20
2017-08-15T13:50:33.190Z,25.00
2017-08-15T13:53:00.828Z,24.90
2017-08-15T13:55:28.543Z,24.80
2017-08-15T13:57:56.157Z,24.60
2017-08-15T14:00:23.832Z,24.30
2017-08-15T14:02:51.460Z,24.20
2017-08-15T14:05:19.070Z,23.80
2017-08-15T14:07:47.479Z,23.50
2017-08-15T14:10:15.092Z,23.50
2017-08-15T14:12:42.703Z,23.50
2017-08-15T14:15:10.364Z,23.50
2017-08-15T14:17:37.979Z,23.60
2017-08-15T14:20:05.561Z,23.70
2017-08-15T14:22:33.949Z,23.70
2017-08-15T14:25:01.547Z,23.70
2017-08-15T14:27:29.191Z,23.70
2017-08-15T14:29:56.838Z,23.70
2017-08-15T14:32:24.450Z,23.60
2017-08-15T14:34:52.074Z,23.50
2017-08-15T14:37:19.749Z,23.50
2017-08-15T14:39:47.351Z,23.50
2017-08-15T14:42:14.962Z,23.40
2017-08-15T14:44:43.505Z,23.50
2017-08-15T14:47:12.005Z,23.60
2017-08-15T14:49:39.688Z,23.60
2017-08-15T14:52:07.463Z,23.60
2017-08-15T14:54:35.254Z,23.70
2017-08-15T14:57:02.863Z,23.70
2017-08-15T14:59:30.511Z,23.80
2017-08-15T15:01:58.236Z,23.90
2017-08-15T15:04:25.841Z,24.00
2017-08-15T15:06:53.508Z,23.90
2017-08-15T15:09:21.200Z,23.90
2017-08-15T15:11:48.930Z,23.70
2017-08-15T15:14:16.787Z,23.60
2017-08-15T15:16:45.187Z,23.30
2017-08-15T15:19:12.903Z,23.30
2017-08-15T15:21:40.627Z,23.40
2017-08-15T15:24:09.483Z,23.20
2017-08-15T15:26:37.915Z,23.20
2017-08-15T15:29:05.593Z,23.20
2017-08-15T15:31:33.398Z,23.20
2017-08-15T15:34:01.829Z,23.10
2017-08-15T15:36:29.732Z,23.10
2017-08-15T15:38:58.210Z,23.20
2017-08-15T15:41:26.641Z,23.10
2017-08-15T15:43:54.727Z,23.10
2017-08-15T15:46:23.236Z,23.10
2017-08-15T15:48:51.066Z,23.10
2017-08-15T15:51:18.801Z,23.20
2017-08-15T15:53:46.442Z,23.20
2017-08-15T15:56:14.784Z,23.40
2017-08-15T15:58:42.398Z,23.40
2017-08-15T16:01:10.054Z,23.20
2017-08-15T16:03:37.644Z,23.20
2017-08-15T16:06:05.273Z,23.30
2017-08-15T16:08:32.960Z,23.40
2017-08-15T16:11:00.588Z,23.40
2017-08-15T16:13:28.219Z,23.40
2017-08-15T16:15:55.885Z,23.60
2017-08-15T16:18:23.485Z,23.70
2017-08-15T16:20:51.101Z,23.70
2017-08-15T16:23:18.738Z,23.80
2017-08-15T16:25:46.421Z,24.10
2017-08-15T16:28:14.103Z,24.40
2017-08-15T16:30:42.572Z,24.90
2017-08-15T16:33:10.223Z,24.90
2017-08-15T16:35:37.856Z,24.90
2017-08-15T16:38:05.430Z,24.60
2017-08-15T16:40:33.335Z,24.60
2017-08-15T16:43:01.801Z,24.30
2017-08-15T16:45:30.383Z,24.30
2017-08-15T16:47:58.170Z,24.30
2017-08-15T16:50:26.546Z,24.20
2017-08-15T16:52:54.977Z,23.90
2017-08-15T16:55:22.575Z,23.90
2017-08-15T16:57:50.192Z,23.70
2017-08-15T17:00:17.822Z,23.70
2017-08-15T17:02:46.275Z,23.70
2017-08-15T17:05:14.119Z,23.60
2017-08-15T17:07:41.747Z,23.70
2017-08-15T17:10:09.440Z,23.80
2017-08-15T17:12:37.237Z,23.60
2017-08-15T17:15:04.830Z,23.50
2017-08-15T17:17:32.610Z,23.40
2017-08-15T17:20:00.430Z,23.40
2017-08-15T17:22:29.785Z,23.50
2017-08-15T17:24:57.632Z,23.40
2017-08-15T17:27:25.240Z,23.30
2017-08-15T17:29:53.010Z,23.20
2017-08-15T17:32:20.673Z,23.20
2017-08-15T17:34:48.394Z,23.10
2017-08-15T17:37:16.207Z,22.90
2017-08-15T17:39:43.991Z,22.70
2017-08-15T17:42:15.730Z,22.60
2017-08-15T17:44:45.435Z,22.50
2017-08-15T17:47:14.362Z,22.50
2017-08-15T17:49:43.868Z,22.60
2017-08-15T17:52:11.804Z,22.50
2017-08-15T17:54:40.932Z,22.50
2017-08-15T17:57:09.942Z,22.40
2017-08-15T17:59:38.173Z,22.30
2017-08-15T18:02:06.670Z,22.30
2017-08-15T18:04:34.409Z,22.30
2017-08-15T18:07:02.167Z,22.30
2017-08-15T18:09:30.003Z,22.20
2017-08-15T18:11:57.712Z,22.20
2017-08-15T18:14:26.191Z,22.10
2017-08-15T18:16:53.978Z,22.10
2017-08-15T18:19:22.518Z,21.90
2017-08-15T18:21:50.194Z,21.90
2017-08-15T18:24:17.786Z,21.90
2017-08-15T18:26:46.227Z,21.80
2017-08-15T18:29:13.852Z,21.80
2017-08-15T18:31:41.658Z,21.70
2017-08-15T18:34:09.265Z,21.60
2017-08-15T18:36:36.884Z,21.60
2017-08-15T18:39:04.497Z,21.50
2017-08-15T18:41:32.273Z,21.40
2017-08-15T18:43:59.939Z,21.40
2017-08-15T18:46:27.653Z,21.40
2017-08-15T18:48:56.229Z,21.30
2017-08-15T18:51:23.831Z,21.30
2017-08-15T18:53:51.593Z,21.20
2017-08-15T18:56:19.218Z,21.20
2017-08-15T18:58:46.813Z,21.20
2017-08-15T19:01:14.480Z,21.20
2017-08-15T19:03:42.166Z,21.10
2017-08-15T19:06:09.748Z,21.10
2017-08-15T19:08:37.510Z,21.00
2017-08-15T19:11:05.158Z,20.90
2017-08-15T19:13:32.745Z,20.90
2017-08-15T19:32:21.366Z,25.70
2017-08-15T19:35:44.321Z,25.00
2017-08-15T19:38:12.965Z,24.70
2017-08-15T19:41:15.947Z,24.60
2017-08-15T19:43:45.280Z,24.40
2017-08-15T19:46:13.822Z,24.40
2017-08-15T19:51:25.565Z,24.50
2017-08-15T19:53:53.915Z,24.80
2017-08-15T19:58:58.626Z,24.50
2017-08-15T20:01:26.341Z,24.60
2017-08-15T20:03:54.688Z,24.70
2017-08-15T20:06:23.849Z,24.60
2017-08-15T20:08:52.209Z,24.60
2017-08-15T20:11:20.593Z,24.50
2017-08-15T20:13:49.073Z,24.40
2017-08-15T20:16:17.530Z,24.40
2017-08-15T20:18:45.929Z,24.40
2017-08-15T20:21:14.365Z,24.30
2017-08-15T20:23:42.744Z,24.20
2017-08-15T20:26:11.930Z,24.20
2017-08-15T20:28:41.192Z,24.20
2017-08-15T20:31:09.548Z,24.20
2017-08-15T20:33:37.937Z,24.20
2017-08-15T20:36:06.312Z,24.20
2017-08-15T20:38:34.964Z,24.20
2017-08-15T20:41:03.457Z,24.20
2017-08-15T20:43:31.874Z,24.20
2017-08-15T20:46:00.242Z,24.20
2017-08-15T20:48:28.672Z,24.20
2017-08-15T20:50:57.975Z,24.20
2017-08-15T20:53:27.216Z,24.10
2017-08-15T20:55:55.898Z,24.10
2017-08-15T20:58:24.344Z,24.10
2017-08-15T21:00:52.730Z,24.20
2017-08-15T21:03:21.189Z,24.10
2017-08-15T21:05:50.365Z,24.10
2017-08-15T21:08:18.800Z,24.10
2017-08-15T21:10:47.258Z,24.10
2017-08-15T21:13:15.738Z,24.10
2017-08-15T21:15:44.117Z,24.00
2017-08-15T21:18:12.504Z,24.00
2017-08-15T21:20:40.872Z,24.00
2017-08-15T21:23:09.537Z,24.00
2017-08-15T21:25:37.958Z,24.00
2017-08-15T21:28:06.472Z,24.00
2017-08-15T21:30:34.802Z,24.00
2017-08-15T21:33:03.248Z,24.00
2017-08-15T21:35:32.394Z,24.00
2017-08-15T21:38:00.877Z,24.00
2017-08-15T21:40:29.207Z,24.00
2017-08-15T21:42:58.364Z,24.00
2017-08-15T21:45:27.023Z,24.00
2017-08-15T21:47:55.500Z,24.00
2017-08-15T21:50:24.020Z,24.00
2017-08-15T21:52:52.470Z,24.00
2017-08-15T21:55:20.838Z,24.00
2017-08-15T21:57:49.216Z,24.00
2017-08-15T22:00:17.577Z,24.00
2017-08-15T22:02:45.917Z,24.00
2017-08-15T22:05:14.308Z,24.00
2017-08-15T22:07:43.404Z,24.00
2017-08-15T22:10:12.547Z,24.00
2017-08-15T22:12:40.970Z,24.00
2017-08-15T22:15:10.503Z,24.00
2017-08-15T22:17:39.032Z,24.00
2017-08-15T22:20:07.416Z,24.00
2017-08-15T22:22:35.762Z,24.00
2017-08-15T22:25:04.151Z,23.90
2017-08-15T22:27:32.517Z,23.90
2017-08-15T22:30:00.847Z,23.90
2017-08-15T22:32:30.036Z,23.90
2017-08-15T22:34:58.396Z,23.90
2017-08-15T22:37:26.941Z,23.90
2017-08-15T22:39:55.305Z,23.90
2017-08-15T22:42:23.886Z,23.90
2017-08-15T22:44:52.326Z,23.90
2017-08-15T22:47:20.673Z,23.90
2017-08-15T22:49:49.034Z,23.90
2017-08-15T22:52:17.367Z,23.90
2017-08-15T22:54:45.705Z,23.90
2017-08-15T22:57:14.174Z,23.90
2017-08-15T22:59:42.517Z,23.90
2017-08-15T23:02:11.612Z,23.90
2017-08-15T23:04:40.744Z,23.80
2017-08-15T23:07:09.470Z,23.80
2017-08-15T23:09:38.781Z,23.80
2017-08-15T23:12:08.134Z,23.80
2017-08-15T23:14:36.582Z,23.80
2017-08-15T23:17:04.926Z,23.80
2017-08-15T23:19:33.305Z,23.80
2017-08-15T23:22:01.887Z,23.90
2017-08-15T23:24:30.245Z,23.80
2017-08-15T23:26:58.622Z,23.80
2017-08-15T23:29:26.968Z,23.80
2017-08-15T23:31:55.307Z,23.80
2017-08-15T23:34:24.595Z,23.80
2017-08-15T23:36:52.973Z,23.70
2017-08-15T23:39:21.446Z,23.80
2017-08-15T23:41:49.911Z,23.80
2017-08-15T23:44:18.240Z,23.80
2017-08-15T23:46:46.590Z,23.80
2017-08-15T23:49:15.150Z,23.80
2017-08-15T23:51:43.573Z,23.80
2017-08-15T23:54:11.924Z,23.80
2017-08-15T23:56:40.287Z,23.80
2017-08-15T23:59:09.644Z,23.80
